Terminal Aerodrome Forecast
Issued by NWS Billings, MT

Home | Current Version | Previous Version | Text Only | Print | Product List | Glossary On
Versions: 1 2 3 4 5 6 7 8 9 10 11 12 13 14 15
000
FTUS45 KBYZ 281728
TAFMLS
TAF
KMLS 281728Z 2818/2918 32016G26KT P6SM VCTS SCT060CB BKN100
     FM282100 33018G28KT P6SM FEW060 SCT100
     FM290300 35010KT P6SM SCT100
     FM290800 33007KT P6SM SKC=

USA.gov is the U.S. government's official web portal to all federal, state and local government web resources and services.